Plain City, OH

10:36 PM EDT on July 31, 2015 (GMT -0400)
APRSWXNET | | Change Station
CLOSE
Current Station
Personal Weather Station
Location: Amlin, OH
Elevation: 940 ft
Nearby Weather Stations

Elev 940 ft 40.09 °N, 83.18 °W | Updated 18 minutes ago

Partly Cloudy
Partly Cloudy
74 °F
Feels Like 75 °F
N
0
Wind Variable Wind from SSW
Gusts 1.0 mph

Today
High -- | Low -- °F
--% Chance of Precip.
Yesterday
High -- | Low -- °F
Precip. -- in
6:30 AM 8:48 PM
Full, 99% visible
Pressure 29.95 in
Visibility 10.0 miles
Clouds Mostly Cloudy 5500 ft
Overcast 7500 ft
Heat Index 75 °F
Dew Point 67 °F
Humidity 79%
Rainfall in
Snow Depth Not available.
UV 0 out of 12
Pollen 7.40 out of 12
Air Quality Not available.
Flu Activity Not available.
METAR KMRT 010234Z AUTO 27004KT 10SM BKN055 OVC075 21/18 A2995 RMK AO2 T02100181

More Conditions Fewer Conditions

Pressure 29.95 in
Visibility 10.0 miles
Clouds Mostly Cloudy 5500 ft
Overcast 7500 ft
Heat Index 75 °F
Dew Point 67 °F
Humidity 79%
Rainfall in
Snow Depth Not available.
UV 0 out of 12
Pollen 7.40 out of 12
Air Quality Not available.
Flu Activity Not available.
METAR KMRT 010234Z AUTO 27004KT 10SM BKN055 OVC075 21/18 A2995 RMK AO2 T02100181

More Conditions Fewer Conditions

10-Day Weather Forecast

×

Almanac

Astronomy

Jul. 31, 2015 Rise Set
Actual Time
Civil Twilight
Nautical Twilight
Astronomical Twilight
Moon
Length of Visible Light
Length of Day
Tomorrow will be .
, % of the Moon is Illuminated

Today's Extremes

State Highs State Lows

Community

WunderPhotos

Upload Photos

1,842,829 photos uploaded!

WunderBlogs® & News

Nearby

Air Quality

  Air Quality AQ Index Pollutant
Not available.

Snow Depth

Station Depth Elevation

Earthquake Activity

City Distance Mag. Time & Date
Minimum magnitude displayed is 2.5.

Coastal Water Temperatures

Place Temperature

Stations

Nearby Weather Stations

Station Location Temp. Windchill Dew Point Humidity Wind Precip. Elev Updated Type